AirNav   Pilot Hours Calculator
 
 1067 users online  

TN54 Mountain View Airport
Johnson City, Tennessee, USA


FAA INFORMATION EFFECTIVE 26 JANUARY 2023

Location

FAA Identifier: TN54
Lat/Long: 36-10-13.0000N 082-33-22.5000W
36-10.216667N 082-33.375000W
36.1702778,-82.5562500
(estimated)
Elevation: 1500 ft. / 457 m (estimated)
From city: 13 miles SW of JOHNSON CITY, TN
Time zone: UTC -5 (UTC -4 during Daylight Saving Time)
Zip code: 37641

Airport Operations

Airport use: Private use. Permission required prior to landing
Activation date: 06/2021
Control tower: no
ARTCC: ATLANTA CENTER
FSS: NASHVILLE FLIGHT SERVICE STATION
Attendance: 
Segmented circle: no

Airport Communications

WX AWOS-3 at GCY (12 nm W): 128.425 (423-639-5081)
WX ASOS at TRI (20 nm N): 118.25 (423-279-0363)

Nearby radio navigation aids

VOR radial/distance  VOR name  Freq  Var
HMVr236/26.1HOLSTON MOUNTAIN VORTAC114.6004W
SOTr051/33.2SNOWBIRD VORTAC108.8004W

 
NDB name  Hdg/Dist  Freq  Var  ID
BOOIE199/14.022107WBO -... ---
ROGERSVILLE144/23.432907WRVN .-. ...- -.
HEMLOCK274/32.832002WBAR -... .- .-.

Airport Services

Runway Information

Runway 6/24

Dimensions: 1997 x 60 ft. / 609 x 18 m
Surface: turf
RUNWAY 6  RUNWAY 24
Latitude: 36-10.133333N36-10.300000N
Longitude: 082-33.550000W082-33.200000W
Elevation: 1500.0 ft.1500.0 ft.
Traffic pattern: leftleft

Airport Ownership and Management from official FAA records

Ownership: Privately-owned
Owner: BLAINE WHITE
111 TALL PINES LN
JOHNSON CITY, TN 37601
Phone 423 571 0634
Manager: BLAINE WHITE
111 TALL PINES LN
JOHNSON CITY, TN 37601
Phone 423 571 0634

Airport Operational Statistics

Aircraft based on the field: 1
Single engine airplanes: 1
    

Instrument Procedures

There are no published instrument procedures at TN54.

Some nearby airports with instrument procedures:

KGCY - Greeneville Municipal Airport (12 nm W)
KTRI - Tri-Cities Airport (20 nm N)
0A9 - Elizabethton Municipal Airport (22 nm NE)
KRVN - Hawkins County Airport (23 nm NW)
6A4 - Johnson County Airport (38 nm NE)
 
Loc | Ops | Rwys | IFR | FBO | Links
Com | Nav | Svcs | Stats | Notes
Aerial photo
No photo
 
Airport distance calculator
Flying to Mountain View Airport? Find the distance to fly.

From to TN54

Sunrise and sunset
Times for 08-Feb-2023
 Local
(UTC-5)
 Zulu
(UTC)
Morning civil twilight06:5911:59
Sunrise07:2612:26
Sunset18:0323:03
Evening civil twilight18:3023:30

Current date and time
Zulu (UTC)  09-Feb-2023 03:35:37
Local (UTC-5)  08-Feb-2023 22:35:37
 
METAR
KGCY 
12nm W 
090315Z AUTO 00000KT 10SM CLR 11/08 A3018 RMK A01
KTRI 
20nm N 
090253Z 00000KT 9SM FEW090 07/06 A3020 RMK AO2 SLP218 T00720056 58014
K0A9 
22nm NE 
090315Z AUTO 06004KT 10SM CLR 10/08 A3020 RMK A01
TAF
KTRI 
20nm N 
081734Z 0818/0918 21005KT P6SM OVC040 FM082100 VRB03KT P6SM BKN040 OVC100 FM090200 11004KT P6SM BKN070 FM090700 14007KT P6SM BKN100 FM091300 17012G20KT P6SM OVC060 PROB30 0915/0917 4SM -SHRA BR OVC025 FM091700 20015G23KT P6SM OVC040
NOTAMs
Click for the latest NOTAMs
NOTAMs are issued by the DoD/FAA and will open in a separate window not controlled by AirNav.

 

 
 

Would you like to see your business listed on this page?

 If your business provides an interesting product or service to pilots, flight crews, aircraft, or users of the Mountain View Airport, you should consider listing it here.  To start the listing process, click on the button below
 
Add a business
 

Other Pages about Mountain View Airport

Update a link
 
Copyright © AirNav, LLC. All rights reserved. Privacy Policy  Contact